Du har inga inställningar för hoppväder.nu

Hoppväder.nu

Senast uppdaterat 21:13

UTC-tid

2019-09-19 kl. 19:13


Sol och måne

Solen går upp 6:47 och går ner 20:00 (beräknade cirkatider)
Nästa fullmåne blir om 24 dagar (2019-10-13)

METAR

ESOE (Örebro)
(23 minuter sedan)
ESOE 191850Z 26004KT CAVOK 09/03 Q1023=



ESOK (Karlstad)
(23 minuter sedan)
ESOK 191850Z 24003KT CAVOK 05/03 Q1024=



ESGR (Skövde)
(23 minuter sedan)
ESGR 191850Z AUTO 22003KT 9999 SCT130/// 06/05 Q1024=



ESSD (Borlänge)
(23 minuter sedan)
ESSD 191850Z AUTO 25005KT 9999 NCD 06/01 Q1022=



ESOW (Västerås)
(23 minuter sedan)
ESOW 191850Z AUTO VRB01KT 9999 NCD 04/00 Q1022=



TAF

ESOE (Örebro)
(103 minuter sedan)
ESOE 191730Z 1918/1921 28005KT CAVOK=



ESOK (Karlstad)
(103 minuter sedan)
ESOK 191730Z 1918/1920 28003KT CAVOK=



ESGR (Skövde)
ESGR



ESSD (Borlänge)
ESSD



ESOW (Västerås)
ESOW





Kodnycklar till TAF och METAR






LHP

(Örebro är område G2a i Södra delen)

ÖVERSIKT FÖR OMRÅDE B UTFÄRDAD 191117
GÄLLANDE DEN 19 SEPTEMBER 2019 MELLAN 12 OCH 20 UTC


Väderöversikt

En högtrycksrygg täcker södra Sverige och rör sig österut

Sikt under 5 kilometer eller molnbas under 1000 fot
Väntas inte förekomma under perioden.

Måttlig eller svår isbildning
Väntas inte förekomma under perioden

Måttlig eller svår turbulens
Väntas inte förekomma under perioden

PROGNOS FÖR OMRÅDE B DEN SÖDRA DELEN UTFÄRDAD 191117
GÄLLANDE DEN 19 SEPTEMBER 2019 MELLAN 12 OCH 20 UTC

Måttlig eller svår turbulens
12-20UTC: I hela området: Väntas inte förekomma under perioden

Måttlig eller svår isbildning
12-20UTC: I hela området: Väntas inte förekomma under perioden

Sikt/Väder/Moln
12-16UTC: Område G1a: Sikt >8km i regnskurar. Molnbas >2000ft.

12-20UTC: Område G1c,G1b,G2b,G2a,G2c,G3a,G3c,G3b,G3d: Sikt >8km. Molnbas >2000ft.

16-20UTC: Område G1a: Sikt >8km. Molnbas >2000ft.


Molnöversida
12-16UTC: Område G1a: Molnöversida > FL125.

12-20UTC: Område G1c,G1b,G2b,G2a,G2c,G3a,G3c,G3b,G3d: Ingen prognos

16-20UTC: Område G1a: Ingen prognos


CB/TCU Moln
12-16UTC: Område G1a: ISOL CB

12-20UTC: Område G1c,G1b,G2b,G2a,G2c,G3a,G3c,G3b,G3d: Väntas inte förekomma under perioden

16-20UTC: Område G1a: Väntas inte förekomma under perioden


Nollgradersisoterm
12-20UTC: Noll grader 3000ft - FL050.

Vind vid marken
12-14UTC: Område G3c: NV/6-16 knop, byar upp till 24 knop.
Område G3b: NV/5-13 knop, byar upp till 21 knop.
Område G2a: NV/5-11 knop, byar upp till 17 knop.
Område G3a: NV-N/6-11 knop, byar upp till 23 knop.
Område G1b,G3d: NV/7-15 knop, byar upp till 23 knop.
Område G2b: NV-N/5-14 knop, byar upp till 22 knop.
Område G1a: NV-N/7-23 knop, byar upp till 30 knop.
Område G2c: NV-N/7-12 knop, byar upp till 22 knop.

12-16UTC: Område G1c: NV/7-15 knop, byar upp till 21 knop.

14-16UTC: Område G1a: NV-N/6-23 knop, byar upp till 30 knop.
Område G2c: NV-N/6-10 knop, byar upp till 21 knop.
Område G3a: NV-N/4-10 knop, byar upp till 21 knop.
Område G3b: NV/4-14 knop, byar upp till 21 knop.
Område G3d: NV/6-14 knop, byar upp till 23 knop.
Område G1b: NV-N/6-14 knop, byar upp till 21 knop.
Område G3c: NV/4-16 knop, byar upp till 24 knop.
Område G2b: NV-N/3-12 knop, byar upp till 20 knop.
Område G2a: NV/4-11 knop, byar upp till 17 knop.

16-18UTC: Område G1c: NV/3-16 knop, byar upp till 21 knop.
Område G1b: NV/1-13 knop, byar upp till 18 knop.
Område G2b: W-NV/0-6 knop, byar upp till 13 knop.
Område G2a: W-NV/1-13 knop, byar upp till 17 knop.
Område G3b: W-NV/2-11 knop, byar upp till 19 knop.
Område G3a: W-NV/0-7 knop, byar upp till 14 knop.
Område G1a: NV-N/1-20 knop, byar upp till 28 knop.
Område G2c: Lugnt, byar upp till 14 knop.
Område G3d: NV/3-12 knop, byar upp till 22 knop.
Område G3c: W-NV/3-14 knop, byar upp till 22 knop.

18-20UTC: Område G3b: W-NV/1-10 knop, byar upp till 15 knop.
Område G1a: NV/0-17 knop, byar upp till 23 knop.
Område G2a: W-NV/2-15 knop, byar upp till 20 knop.
Område G1b: W-NV/0-11 knop, byar upp till 13 knop.
Område G3d: W-NV/1-8 knop, byar upp till 15 knop.
Område G2b: V/0-6 knop.
Område G2c: Lugnt.
Område G3a: V/0-8 knop, byar upp till 14 knop.
Område G1c: W-NV/3-14 knop, byar upp till 20 knop.
Område G3c: W-NV/2-11 knop, byar upp till 18 knop.


Genomsnittlig vind och temperatur för området
2000ft:
12-18UTC: 330/16kt +5.
18-20UTC: 330/15kt +5.

FL50:
12-14UTC: 340/18kt -2.
14-16UTC: 340/17kt -2.
16-18UTC: 340/17kt -1.
18-20UTC: 340/16kt -1.

FL100:
12-14UTC: 340/21kt -12.
14-18UTC: 330/22kt -12.
18-20UTC: 330/21kt -12.

Lägsta QNH
1019 hPa.

OBS! endast utbredd måttlig eller svår isbildning och turbulens prognostiseras i LLF.
Avsaknad av isbildning och turbulens i prognosen utesluter inte förekomst av lätt isbildning och turbulens.
För indikation på lätt isbildning, var vänlig kontrollera om prognosen för molntopp ligger högre än nollgradersisotermen.
Förekomst av TCU eller CB medför alltid en risk för måttlig eller svår isbildning och turbulens även om det inte framgår explicit av prognosen.





Spotting

Hur fungerar spotthjälpen och Vindkartan?

Markvind är ca 1-8 m/s med byar på 10 m/s.
Vind på 600 m ca 8 m/s.
Vind på 1500 m ca 8 m/s.
Vind på 3000 m ca 11 m/s.
FXB flyger ca 25 m/s över marken på finalen.
Du driver ca 486 m bakåt i frifall. (648 m)
Lämplig spot är 8 sekunder eller 202 m efter gropen.
(14 s eller 353 m)
För små grupper eller ensamhoppare bör man vänta 6-8 sekunder mellan grupperna.
För större grupper bör man vänta 12-14 sekunder mellan grupperna.


Vindkartan

Senast uppdaterad 21:13




All data kommer från LFV.se